createdAt,value
2017-07-25T00:00:08.823Z,0
2017-07-25T00:01:21.095Z,0
2017-07-25T00:02:33.759Z,0
2017-07-25T00:03:46.078Z,0
2017-07-25T00:04:58.397Z,0
2017-07-25T00:06:10.657Z,0
2017-07-25T00:07:23.264Z,0
2017-07-25T00:08:35.860Z,0
2017-07-25T00:09:48.411Z,0
2017-07-25T00:11:01.000Z,0
2017-07-25T00:12:13.610Z,0
2017-07-25T00:13:26.275Z,0
2017-07-25T00:14:38.568Z,0
2017-07-25T00:15:50.538Z,0
2017-07-25T00:17:03.062Z,0
2017-07-25T00:18:15.627Z,0
2017-07-25T00:19:28.208Z,0
2017-07-25T00:20:40.726Z,0
2017-07-25T00:21:52.714Z,0
2017-07-25T00:23:05.011Z,0
2017-07-25T00:24:17.583Z,0
2017-07-25T00:25:30.158Z,0
2017-07-25T00:26:42.723Z,0
2017-07-25T00:27:55.000Z,0
2017-07-25T00:29:07.366Z,0
2017-07-25T00:30:19.904Z,0
2017-07-25T00:31:32.159Z,0
2017-07-25T00:32:44.680Z,0
2017-07-25T00:33:56.648Z,0
2017-07-25T00:35:09.313Z,0
2017-07-25T00:36:21.571Z,0
2017-07-25T00:37:33.894Z,0
2017-07-25T00:38:46.182Z,0
2017-07-25T00:39:58.735Z,0
2017-07-25T00:41:11.009Z,0
2017-07-25T00:42:23.617Z,0
2017-07-25T00:43:36.166Z,0
2017-07-25T00:44:48.818Z,0
2017-07-25T00:46:01.465Z,0
2017-07-25T00:47:14.122Z,0
2017-07-25T00:48:26.732Z,0
2017-07-25T00:49:39.275Z,0
2017-07-25T00:50:50.942Z,0
2017-07-25T00:52:03.137Z,0
2017-07-25T00:53:15.034Z,0
2017-07-25T00:54:27.586Z,0
2017-07-25T00:55:40.153Z,0
2017-07-25T00:56:52.672Z,0
2017-07-25T00:58:04.618Z,0
2017-07-25T00:59:16.898Z,0
2017-07-25T01:00:29.210Z,0
2017-07-25T01:01:41.758Z,0
2017-07-25T01:02:54.376Z,0
2017-07-25T01:04:06.689Z,0
2017-07-25T01:05:18.996Z,0
2017-07-25T01:06:31.281Z,0
2017-07-25T01:07:43.856Z,0
2017-07-25T01:08:56.098Z,0
2017-07-25T01:10:08.731Z,0
2017-07-25T01:11:21.000Z,0
2017-07-25T01:12:33.277Z,0
2017-07-25T01:13:45.925Z,0
2017-07-25T01:14:58.234Z,0
2017-07-25T01:16:10.529Z,0
2017-07-25T01:17:22.809Z,0
2017-07-25T01:18:35.471Z,0
2017-07-25T01:19:47.745Z,0
2017-07-25T01:21:00.441Z,0
2017-07-25T01:22:12.770Z,0
2017-07-25T01:23:25.074Z,0
2017-07-25T01:24:37.691Z,0
2017-07-25T01:25:49.984Z,0
2017-07-25T01:27:02.619Z,0
2017-07-25T01:28:15.140Z,0
2017-07-25T01:29:27.760Z,0
2017-07-25T01:30:40.634Z,0
2017-07-25T01:31:53.284Z,0
2017-07-25T01:33:05.628Z,0
2017-07-25T01:34:18.222Z,0
2017-07-25T01:35:30.765Z,0
2017-07-25T01:36:43.403Z,0
2017-07-25T01:37:55.648Z,0
2017-07-25T01:39:07.608Z,0
2017-07-25T01:40:20.174Z,0
2017-07-25T01:41:32.476Z,0
2017-07-25T01:42:45.121Z,0
2017-07-25T01:43:57.435Z,0
2017-07-25T01:45:10.064Z,0
2017-07-25T01:46:22.659Z,0
2017-07-25T01:47:34.992Z,0
2017-07-25T01:48:47.521Z,0
2017-07-25T01:49:59.848Z,0
2017-07-25T01:51:12.429Z,0
2017-07-25T01:52:24.707Z,0
2017-07-25T01:53:37.329Z,0
2017-07-25T01:54:49.890Z,0
2017-07-25T01:56:02.562Z,0
2017-07-25T01:57:14.878Z,0
2017-07-25T01:58:27.496Z,0
2017-07-25T01:59:40.089Z,0
2017-07-25T02:00:52.693Z,0
2017-07-25T02:02:05.351Z,0
2017-07-25T02:03:17.963Z,0
2017-07-25T02:04:30.228Z,0
2017-07-25T02:05:42.824Z,0
2017-07-25T02:06:55.135Z,0
2017-07-25T02:08:07.754Z,0
2017-07-25T02:09:19.415Z,0
2017-07-25T02:10:31.729Z,0
2017-07-25T02:11:44.323Z,0
2017-07-25T02:12:56.869Z,0
2017-07-25T02:14:09.439Z,0
2017-07-25T02:15:21.962Z,0
2017-07-25T02:16:34.583Z,0
2017-07-25T02:17:47.173Z,0
2017-07-25T02:18:59.421Z,0
2017-07-25T02:20:12.002Z,0
2017-07-25T02:21:24.293Z,0
2017-07-25T02:22:36.883Z,0
2017-07-25T02:23:49.504Z,0
2017-07-25T02:25:01.773Z,0
2017-07-25T02:26:14.076Z,0
2017-07-25T02:27:26.338Z,0
2017-07-25T02:28:38.354Z,0
2017-07-25T02:29:50.942Z,0
2017-07-25T02:31:03.552Z,0
2017-07-25T02:32:16.100Z,0
2017-07-25T02:33:28.635Z,0
2017-07-25T02:34:40.691Z,0
2017-07-25T02:35:53.272Z,0
2017-07-25T02:37:05.876Z,0
2017-07-25T02:38:17.867Z,0
2017-07-25T02:39:30.482Z,0
2017-07-25T02:40:42.774Z,0
2017-07-25T02:41:55.608Z,0
2017-07-25T02:43:08.214Z,0
2017-07-25T02:44:20.782Z,0
2017-07-25T02:45:33.403Z,0
2017-07-25T02:46:45.685Z,0
2017-07-25T02:47:58.394Z,0
2017-07-25T02:49:11.009Z,0
2017-07-25T02:50:23.669Z,0
2017-07-25T02:51:35.991Z,0
2017-07-25T02:52:48.239Z,0
2017-07-25T02:54:00.868Z,4
2017-07-25T02:55:13.237Z,4
2017-07-25T02:56:25.528Z,4
2017-07-25T02:57:38.187Z,0
2017-07-25T02:58:50.484Z,4
2017-07-25T03:00:02.727Z,4
2017-07-25T03:01:15.045Z,4
2017-07-25T03:02:27.664Z,8
2017-07-25T03:03:40.218Z,8
2017-07-25T03:04:52.505Z,4
2017-07-25T03:06:04.735Z,8
2017-07-25T03:07:17.387Z,4
2017-07-25T03:08:29.927Z,8
2017-07-25T03:09:42.229Z,8
2017-07-25T03:10:54.853Z,12
2017-07-25T03:12:07.200Z,12
2017-07-25T03:13:19.488Z,8
2017-07-25T03:14:32.055Z,12
2017-07-25T03:15:44.627Z,12
2017-07-25T03:16:56.947Z,16
2017-07-25T03:18:09.543Z,16
2017-07-25T03:19:22.099Z,20
2017-07-25T03:20:34.739Z,12
2017-07-25T03:21:47.282Z,20
2017-07-25T03:22:59.979Z,24
2017-07-25T03:24:12.234Z,24
2017-07-25T03:25:24.193Z,28
2017-07-25T03:26:36.392Z,24
2017-07-25T03:27:49.011Z,32
2017-07-25T03:29:01.675Z,40
2017-07-25T03:30:13.660Z,60
2017-07-25T03:31:25.660Z,80
2017-07-25T03:32:38.255Z,88
2017-07-25T03:33:50.815Z,92
2017-07-25T03:35:03.122Z,96
2017-07-25T03:36:15.725Z,100
2017-07-25T03:37:27.964Z,88
2017-07-25T03:38:40.224Z,92
2017-07-25T03:39:52.787Z,84
2017-07-25T03:41:05.352Z,72
2017-07-25T03:42:17.659Z,68
2017-07-25T03:43:29.658Z,144
2017-07-25T03:44:42.289Z,228
2017-07-25T03:45:54.993Z,244
2017-07-25T03:47:07.582Z,228
2017-07-25T03:48:19.898Z,184
2017-07-25T03:49:32.466Z,212
2017-07-25T03:50:44.969Z,224
2017-07-25T03:51:57.280Z,208
2017-07-25T03:53:09.825Z,280
2017-07-25T03:54:22.029Z,364
2017-07-25T03:55:34.603Z,388
2017-07-25T03:56:47.170Z,372
2017-07-25T03:57:59.145Z,404
2017-07-25T03:59:11.463Z,436
2017-07-25T04:00:24.061Z,420
2017-07-25T04:01:36.627Z,380
2017-07-25T04:02:48.926Z,352
2017-07-25T04:04:01.226Z,308
2017-07-25T04:05:13.235Z,292
2017-07-25T04:06:25.530Z,304
2017-07-25T04:07:38.069Z,276
2017-07-25T04:08:50.693Z,360
2017-07-25T04:10:02.740Z,428
2017-07-25T04:11:14.989Z,460
2017-07-25T04:12:27.294Z,544
2017-07-25T04:13:39.891Z,648
2017-07-25T04:14:52.558Z,656
2017-07-25T04:16:04.808Z,604
2017-07-25T04:17:17.099Z,624
2017-07-25T04:18:29.382Z,472
2017-07-25T04:19:41.920Z,420
2017-07-25T04:20:54.243Z,492
2017-07-25T04:22:06.506Z,480
2017-07-25T04:23:19.024Z,496
2017-07-25T04:24:31.593Z,444
2017-07-25T04:25:43.846Z,600
2017-07-25T04:26:56.484Z,784
2017-07-25T04:28:08.427Z,780
2017-07-25T04:29:20.759Z,744
2017-07-25T04:30:33.356Z,808
2017-07-25T04:31:45.897Z,864
2017-07-25T04:32:58.439Z,880
2017-07-25T04:34:10.414Z,924
2017-07-25T04:35:23.064Z,964
2017-07-25T04:36:35.371Z,1068
2017-07-25T04:37:47.677Z,1128
2017-07-25T04:38:59.669Z,1108
2017-07-25T04:40:11.924Z,1084
2017-07-25T04:41:24.536Z,1172
2017-07-25T04:42:36.811Z,1260
2017-07-25T04:43:49.460Z,1252
2017-07-25T04:45:01.825Z,1104
2017-07-25T04:46:14.131Z,1048
2017-07-25T04:47:26.741Z,980
2017-07-25T04:48:39.294Z,968
2017-07-25T04:49:51.875Z,976
2017-07-25T04:51:04.436Z,1008
2017-07-25T04:52:16.741Z,1096
2017-07-25T04:53:29.022Z,1084
2017-07-25T04:54:41.595Z,1092
2017-07-25T04:55:54.168Z,1164
2017-07-25T04:57:06.108Z,1248
2017-07-25T04:58:18.379Z,1364
2017-07-25T04:59:30.657Z,1388
2017-07-25T05:00:43.314Z,1544
2017-07-25T05:01:55.559Z,1624
2017-07-25T05:03:07.868Z,1448
2017-07-25T05:04:19.883Z,1128
2017-07-25T05:05:32.086Z,880
2017-07-25T05:06:44.612Z,920
2017-07-25T05:07:57.223Z,1080
2017-07-25T05:09:09.503Z,1296
2017-07-25T05:10:22.117Z,1280
2017-07-25T05:11:34.482Z,1304
2017-07-25T05:12:46.418Z,1500
2017-07-25T05:13:59.031Z,1824
2017-07-25T05:15:11.725Z,2004
2017-07-25T05:16:24.343Z,2104
2017-07-25T05:17:36.895Z,2164
2017-07-25T05:18:49.502Z,1916
2017-07-25T05:20:01.504Z,1724
2017-07-25T05:21:14.113Z,1432
2017-07-25T05:22:26.803Z,1084
2017-07-25T05:23:38.831Z,932
2017-07-25T05:24:51.464Z,660
2017-07-25T05:26:04.067Z,812
2017-07-25T05:27:16.681Z,940
2017-07-25T05:28:29.245Z,1096
2017-07-25T05:29:41.857Z,1320
2017-07-25T05:30:54.430Z,1224
2017-07-25T05:32:07.096Z,920
2017-07-25T05:33:18.726Z,804
2017-07-25T05:34:30.988Z,1300
2017-07-25T05:35:43.613Z,1664
2017-07-25T05:36:55.901Z,2084
2017-07-25T05:38:08.485Z,1952
2017-07-25T05:39:20.989Z,1944
2017-07-25T05:40:33.571Z,1656
2017-07-25T05:41:46.175Z,1344
2017-07-25T05:42:58.708Z,1140
2017-07-25T05:44:10.986Z,1608
2017-07-25T05:45:23.625Z,1476
2017-07-25T05:46:35.902Z,1592
2017-07-25T05:47:47.884Z,2512
2017-07-25T05:49:00.132Z,2652
2017-07-25T05:50:12.732Z,2864
2017-07-25T05:51:25.028Z,2316
2017-07-25T05:52:37.643Z,4028
2017-07-25T05:53:50.252Z,3280
2017-07-25T05:55:02.912Z,2604
2017-07-25T05:56:15.512Z,2060
2017-07-25T05:57:27.781Z,2152
2017-07-25T05:58:40.091Z,1400
2017-07-25T05:59:52.370Z,1232
2017-07-25T06:01:04.940Z,964
2017-07-25T06:02:17.547Z,1068
2017-07-25T06:03:29.801Z,2036
2017-07-25T06:04:42.382Z,1808
2017-07-25T06:05:54.701Z,1432
2017-07-25T06:07:07.299Z,1536
2017-07-25T06:08:19.555Z,1008
2017-07-25T06:09:32.193Z,1072
2017-07-25T06:10:44.785Z,1560
2017-07-25T06:11:57.085Z,1808
2017-07-25T06:13:09.370Z,2152
2017-07-25T06:14:21.963Z,1972
2017-07-25T06:15:34.566Z,1928
2017-07-25T06:16:46.816Z,2908
2017-07-25T06:17:59.102Z,2664
2017-07-25T06:19:11.679Z,2712
2017-07-25T06:20:23.980Z,3960
2017-07-25T06:21:36.307Z,4100
2017-07-25T06:22:48.917Z,3404
2017-07-25T06:24:01.494Z,3948
2017-07-25T06:25:14.133Z,3224
2017-07-25T06:26:26.089Z,2664
2017-07-25T06:27:38.401Z,3252
2017-07-25T06:28:51.002Z,4300
2017-07-25T06:30:03.546Z,4132
2017-07-25T06:31:15.836Z,2736
2017-07-25T06:32:27.901Z,3072
2017-07-25T06:33:40.481Z,5932
2017-07-25T06:34:53.034Z,3936
2017-07-25T06:36:05.305Z,4168
2017-07-25T06:37:17.575Z,2588
2017-07-25T06:38:29.868Z,2768
2017-07-25T06:39:42.491Z,1548
2017-07-25T06:40:54.769Z,2440
2017-07-25T06:42:07.376Z,2664
2017-07-25T06:43:19.355Z,2472
2017-07-25T06:44:31.925Z,2376
2017-07-25T06:45:44.477Z,2624
2017-07-25T06:46:56.786Z,2808
2017-07-25T06:48:09.399Z,2776
2017-07-25T06:49:21.134Z,2996
2017-07-25T06:50:33.688Z,3296
2017-07-25T06:51:46.287Z,4188
2017-07-25T06:52:58.554Z,4388
2017-07-25T06:54:11.143Z,5108
2017-07-25T06:55:23.160Z,5456
2017-07-25T06:56:35.782Z,5452
2017-07-25T06:57:48.106Z,5324
2017-07-25T06:59:00.677Z,5348
2017-07-25T07:00:13.322Z,5292
2017-07-25T07:01:25.337Z,5112
2017-07-25T07:02:37.891Z,4348
2017-07-25T07:03:50.204Z,5064
2017-07-25T07:05:02.477Z,5112
2017-07-25T07:06:15.076Z,4380
2017-07-25T07:07:27.628Z,3532
2017-07-25T07:08:39.963Z,4052
2017-07-25T07:09:52.534Z,4400
2017-07-25T07:11:04.836Z,3320
2017-07-25T07:12:17.408Z,3256
2017-07-25T07:13:29.727Z,3336
2017-07-25T07:14:41.999Z,3444
2017-07-25T07:15:53.648Z,2608
2017-07-25T07:17:06.235Z,3404
2017-07-25T07:18:18.790Z,4156
2017-07-25T07:19:31.378Z,5480
2017-07-25T07:20:43.973Z,5496
2017-07-25T07:21:56.229Z,5172
2017-07-25T07:23:08.839Z,5408
2017-07-25T07:24:21.635Z,6000
2017-07-25T07:25:33.896Z,6172
2017-07-25T07:26:46.207Z,5716
2017-07-25T07:27:58.775Z,6672
2017-07-25T07:29:11.391Z,7380
2017-07-25T07:30:23.339Z,6456
2017-07-25T07:31:35.319Z,4936
2017-07-25T07:32:47.657Z,4140
2017-07-25T07:33:59.603Z,4848
2017-07-25T07:35:12.159Z,6136
2017-07-25T07:36:24.192Z,4744
2017-07-25T07:37:36.431Z,5320
2017-07-25T07:38:48.685Z,4728
2017-07-25T07:40:01.245Z,4368
2017-07-25T07:41:13.879Z,4096
2017-07-25T07:42:25.847Z,3960
2017-07-25T07:43:38.152Z,4124
2017-07-25T07:44:50.815Z,4716
2017-07-25T07:46:03.437Z,4512
2017-07-25T07:47:16.058Z,5248
2017-07-25T07:48:28.378Z,5760
2017-07-25T07:49:40.930Z,7828
2017-07-25T07:50:53.481Z,6892
2017-07-25T07:52:05.801Z,7560
2017-07-25T07:53:18.097Z,7200
2017-07-25T07:54:30.669Z,6876
2017-07-25T07:55:42.929Z,6772
2017-07-25T07:56:55.485Z,6024
2017-07-25T07:58:07.845Z,5444
2017-07-25T07:59:20.433Z,7028
2017-07-25T08:00:33.015Z,7100
2017-07-25T08:01:45.535Z,7640
2017-07-25T08:02:57.245Z,7916
2017-07-25T08:04:09.813Z,8400
2017-07-25T08:05:22.076Z,8232
2017-07-25T08:06:34.354Z,7696
2017-07-25T08:07:46.941Z,7132
2017-07-25T08:08:59.462Z,7632
2017-07-25T08:10:11.979Z,8424
2017-07-25T08:11:24.618Z,8900
2017-07-25T08:12:37.177Z,8476
2017-07-25T08:13:49.500Z,8672
2017-07-25T08:15:02.104Z,8664
2017-07-25T08:16:14.707Z,8072
2017-07-25T08:17:27.021Z,7580
2017-07-25T08:18:38.661Z,6468
2017-07-25T08:19:51.239Z,6620
2017-07-25T08:21:03.554Z,6884
2017-07-25T08:22:16.149Z,6496
2017-07-25T08:23:28.421Z,5768
2017-07-25T08:24:40.697Z,6500
2017-07-25T08:25:53.283Z,7004
2017-07-25T08:27:05.596Z,7608
2017-07-25T08:28:17.917Z,7368
2017-07-25T08:29:29.875Z,6984
2017-07-25T08:30:41.879Z,7120
2017-07-25T08:31:54.193Z,7416
2017-07-25T08:33:06.825Z,7656
2017-07-25T08:34:19.097Z,8148
2017-07-25T08:35:31.079Z,7704
2017-07-25T08:36:43.346Z,7480
2017-07-25T08:37:55.589Z,7368
2017-07-25T08:39:07.612Z,7164
2017-07-25T08:40:19.901Z,7564
2017-07-25T08:41:32.473Z,8936
2017-07-25T08:42:45.053Z,10736
2017-07-25T08:43:56.751Z,12612
2017-07-25T08:45:09.328Z,13324
2017-07-25T08:46:21.856Z,12360
2017-07-25T08:47:34.109Z,10968
2017-07-25T08:48:46.709Z,9852
2017-07-25T08:49:59.031Z,9460
2017-07-25T08:51:11.567Z,9356
2017-07-25T08:52:24.072Z,9712
2017-07-25T08:53:36.682Z,9624
2017-07-25T08:54:49.314Z,9224
2017-07-25T08:56:01.601Z,8912
2017-07-25T08:57:13.869Z,8772
2017-07-25T08:58:26.219Z,8596
2017-07-25T08:59:38.771Z,8236
2017-07-25T09:00:51.112Z,7880
2017-07-25T09:02:03.030Z,7764
2017-07-25T09:03:15.324Z,7596
2017-07-25T09:04:27.932Z,7072
2017-07-25T09:05:40.547Z,7104
2017-07-25T09:06:52.462Z,7152
2017-07-25T09:08:05.064Z,7344
2017-07-25T09:09:17.702Z,7520
2017-07-25T09:10:29.952Z,7912
2017-07-25T09:11:42.579Z,8428
2017-07-25T09:12:55.166Z,9072
2017-07-25T09:14:07.161Z,9424
2017-07-25T09:15:19.697Z,10388
2017-07-25T09:16:32.333Z,12232
2017-07-25T09:17:44.626Z,16164
2017-07-25T09:18:56.607Z,20992
2017-07-25T09:20:09.216Z,26848
2017-07-25T09:21:21.820Z,29280
2017-07-25T09:22:34.108Z,28128
2017-07-25T09:23:46.104Z,31744
2017-07-25T09:24:58.136Z,29632
2017-07-25T09:26:10.383Z,28640
2017-07-25T09:27:22.678Z,27840
2017-07-25T09:28:34.666Z,24768
2017-07-25T09:29:46.660Z,27552
2017-07-25T09:30:58.642Z,26784
2017-07-25T09:32:11.201Z,23520
2017-07-25T09:33:23.480Z,19456
2017-07-25T09:34:35.802Z,16788
2017-07-25T09:35:48.378Z,20608
2017-07-25T09:37:00.984Z,22528
2017-07-25T09:38:13.230Z,28192
2017-07-25T09:39:24.863Z,25088
2017-07-25T09:40:37.477Z,28928
2017-07-25T09:41:50.098Z,31584
2017-07-25T09:43:02.700Z,27136
2017-07-25T09:44:15.334Z,24416
2017-07-25T09:45:27.682Z,27040
2017-07-25T09:46:39.895Z,32032
2017-07-25T09:47:52.173Z,32704
2017-07-25T09:49:04.743Z,32576
2017-07-25T09:50:17.347Z,26336
2017-07-25T09:51:29.288Z,23968
2017-07-25T09:52:41.864Z,23008
2017-07-25T09:53:54.420Z,21536
2017-07-25T09:55:06.736Z,21504
2017-07-25T09:56:19.412Z,22432
2017-07-25T09:57:31.446Z,22656
2017-07-25T09:58:43.668Z,21280
2017-07-25T09:59:56.190Z,20032
2017-07-25T10:01:08.803Z,19712
2017-07-25T10:02:21.386Z,21824
2017-07-25T10:03:33.644Z,23104
2017-07-25T10:04:45.866Z,21440
2017-07-25T10:05:58.476Z,20960
2017-07-25T10:07:10.758Z,20064
2017-07-25T10:08:22.757Z,23392
2017-07-25T10:09:35.087Z,27104
2017-07-25T10:10:47.373Z,31296
2017-07-25T10:11:59.666Z,34752
2017-07-25T10:13:12.015Z,31776
2017-07-25T10:14:24.264Z,27328
2017-07-25T10:15:36.832Z,33536
2017-07-25T10:16:49.410Z,25984
2017-07-25T10:18:02.062Z,29920
2017-07-25T10:19:14.329Z,27744
2017-07-25T10:20:26.045Z,25440
2017-07-25T10:21:38.608Z,24448
2017-07-25T10:22:51.240Z,23136
2017-07-25T10:24:03.562Z,24640
2017-07-25T10:25:16.230Z,27072
2017-07-25T10:26:28.216Z,27168
2017-07-25T10:27:40.443Z,27872
2017-07-25T10:28:52.765Z,23616
2017-07-25T10:30:05.330Z,28352
2017-07-25T10:31:17.939Z,30432
2017-07-25T10:32:30.508Z,29856
2017-07-25T10:33:43.102Z,30880
2017-07-25T10:34:55.096Z,30144
2017-07-25T10:36:07.392Z,30176
2017-07-25T10:37:19.959Z,30144
2017-07-25T10:38:31.958Z,29504
2017-07-25T10:39:44.547Z,26112
2017-07-25T10:40:57.200Z,27072
2017-07-25T10:42:09.489Z,35040
2017-07-25T10:43:20.884Z,39136
2017-07-25T10:44:33.493Z,39424
2017-07-25T10:45:46.107Z,45824
2017-07-25T10:46:58.408Z,54368
2017-07-25T10:48:10.422Z,59040
2017-07-25T10:49:22.771Z,52480
2017-07-25T10:50:34.447Z,35328
2017-07-25T10:51:47.136Z,40704
2017-07-25T10:52:59.779Z,41664
2017-07-25T10:54:11.784Z,46720
2017-07-25T10:55:24.105Z,47296
2017-07-25T10:56:36.366Z,46080
2017-07-25T10:57:48.993Z,38688
2017-07-25T10:59:01.582Z,34080
2017-07-25T11:00:14.102Z,38400
2017-07-25T11:01:26.400Z,42272
2017-07-25T11:02:38.731Z,35008
2017-07-25T11:03:51.098Z,29024
2017-07-25T11:05:03.754Z,30688
2017-07-25T11:06:15.695Z,33408
2017-07-25T11:07:28.034Z,35136
2017-07-25T11:08:40.275Z,32320
2017-07-25T11:09:52.926Z,26784
2017-07-25T11:11:05.545Z,26816
2017-07-25T11:12:18.169Z,28928
2017-07-25T11:13:30.427Z,29568
2017-07-25T11:14:43.015Z,29824
2017-07-25T11:15:55.711Z,31232
2017-07-25T11:17:08.356Z,34784
2017-07-25T11:18:20.320Z,35552
2017-07-25T11:19:32.589Z,28864
2017-07-25T11:20:44.534Z,25472
2017-07-25T11:21:57.136Z,21632
2017-07-25T11:23:09.481Z,21568
2017-07-25T11:24:21.746Z,26080
2017-07-25T11:25:33.743Z,28448
2017-07-25T11:26:46.264Z,26528
2017-07-25T11:27:58.512Z,25984
2017-07-25T11:29:10.797Z,27360
2017-07-25T11:30:23.147Z,31328
2017-07-25T11:31:35.425Z,29248
2017-07-25T11:32:47.680Z,25888
2017-07-25T11:34:00.289Z,26112
2017-07-25T11:35:12.841Z,29312
2017-07-25T11:36:25.405Z,28320
2017-07-25T11:37:37.950Z,25568
2017-07-25T11:38:50.472Z,24896
2017-07-25T11:40:03.043Z,22848
2017-07-25T11:41:15.650Z,23008
2017-07-25T11:42:27.910Z,23712
2017-07-25T11:43:40.458Z,24256
2017-07-25T11:44:53.026Z,24704
2017-07-25T11:46:05.672Z,23744
2017-07-25T11:47:18.045Z,23328
2017-07-25T11:48:30.021Z,24544
2017-07-25T11:49:42.623Z,26496
2017-07-25T11:50:55.212Z,27776
2017-07-25T11:52:07.251Z,29536
2017-07-25T11:53:19.580Z,30592
2017-07-25T11:54:32.122Z,30848
2017-07-25T11:55:44.457Z,30400
2017-07-25T11:56:56.716Z,29824
2017-07-25T11:58:09.358Z,28672
2017-07-25T11:59:21.306Z,26688
2017-07-25T12:00:34.173Z,24160
2017-07-25T12:01:46.456Z,21120
2017-07-25T12:02:59.057Z,18656
2017-07-25T12:04:11.113Z,15732
2017-07-25T12:05:23.059Z,14872
2017-07-25T12:06:35.585Z,14724
2017-07-25T12:07:48.111Z,15592
2017-07-25T12:09:00.747Z,16624
2017-07-25T12:10:13.371Z,16640
2017-07-25T12:11:25.644Z,16376
2017-07-25T12:12:38.226Z,16496
2017-07-25T12:13:50.524Z,17428
2017-07-25T12:15:03.105Z,17504
2017-07-25T12:16:15.389Z,18368
2017-07-25T12:17:27.891Z,19488
2017-07-25T12:18:39.899Z,19936
2017-07-25T12:19:52.160Z,19776
2017-07-25T12:21:04.163Z,19648
2017-07-25T12:22:16.754Z,19584
2017-07-25T12:23:28.701Z,19648
2017-07-25T12:24:41.225Z,18432
2017-07-25T12:25:53.833Z,18880
2017-07-25T12:27:06.165Z,18880
2017-07-25T12:28:18.508Z,18784
2017-07-25T12:29:30.726Z,19808
2017-07-25T12:30:42.988Z,21024
2017-07-25T12:31:54.635Z,20864
2017-07-25T12:33:06.566Z,20800
2017-07-25T12:34:19.145Z,21984
2017-07-25T12:35:31.167Z,23072
2017-07-25T12:36:43.804Z,22880
2017-07-25T12:37:56.429Z,21184
2017-07-25T12:39:09.099Z,20768
2017-07-25T12:40:21.426Z,21088
2017-07-25T12:41:33.984Z,20256
2017-07-25T12:42:45.967Z,19616
2017-07-25T12:43:58.576Z,18496
2017-07-25T12:45:11.179Z,17296
2017-07-25T12:46:23.770Z,15636
2017-07-25T12:47:36.041Z,14664
2017-07-25T12:48:48.372Z,15408
2017-07-25T12:50:00.752Z,16380
2017-07-25T12:51:13.112Z,16204
2017-07-25T12:52:25.650Z,16476
2017-07-25T12:53:37.938Z,15548
2017-07-25T12:54:50.525Z,14496
2017-07-25T12:56:02.260Z,15144
2017-07-25T12:57:14.512Z,14656
2017-07-25T12:58:26.427Z,14560
2017-07-25T12:59:38.750Z,15464
2017-07-25T13:00:51.021Z,16488
2017-07-25T13:02:03.603Z,18016
2017-07-25T13:03:16.223Z,18656
2017-07-25T13:04:28.832Z,19904
2017-07-25T13:05:41.404Z,21600
2017-07-25T13:06:54.031Z,22368
2017-07-25T13:08:06.301Z,22208
2017-07-25T13:09:18.929Z,22368
2017-07-25T13:10:31.199Z,20896
2017-07-25T13:11:43.844Z,18688
2017-07-25T13:12:56.464Z,17952
2017-07-25T13:14:08.775Z,16352
2017-07-25T13:15:21.359Z,14444
2017-07-25T13:16:33.896Z,14192
2017-07-25T13:17:46.213Z,14468
2017-07-25T13:18:58.195Z,14196
2017-07-25T13:20:10.479Z,13668
2017-07-25T13:21:22.462Z,13104
2017-07-25T13:22:34.775Z,12728
2017-07-25T13:23:47.390Z,12072
2017-07-25T13:24:59.353Z,11028
2017-07-25T13:26:11.984Z,10204
2017-07-25T13:27:24.542Z,9652
2017-07-25T13:28:36.804Z,9300
2017-07-25T13:29:49.104Z,8908
2017-07-25T13:31:01.369Z,8772
2017-07-25T13:32:13.641Z,8740
2017-07-25T13:33:25.888Z,9004
2017-07-25T13:34:37.844Z,9552
2017-07-25T13:35:50.503Z,10156
2017-07-25T13:37:03.178Z,10664
2017-07-25T13:38:15.474Z,10932
2017-07-25T13:39:27.872Z,10892
2017-07-25T13:40:40.442Z,10632
2017-07-25T13:41:53.131Z,10264
2017-07-25T13:43:04.769Z,9888
2017-07-25T13:44:17.104Z,9668
2017-07-25T13:45:29.406Z,9128
2017-07-25T13:46:41.964Z,8444
2017-07-25T13:47:53.897Z,7812
2017-07-25T13:49:06.523Z,7528
2017-07-25T13:50:18.837Z,7584
2017-07-25T13:51:31.163Z,7524
2017-07-25T13:52:43.786Z,7312
2017-07-25T13:53:56.086Z,7396
2017-07-25T13:55:08.721Z,7636
2017-07-25T13:56:21.018Z,7940
2017-07-25T13:57:33.605Z,8388
2017-07-25T13:58:45.903Z,8688
2017-07-25T13:59:58.126Z,9032
2017-07-25T14:01:10.402Z,9696
2017-07-25T14:02:23.060Z,10148
2017-07-25T14:03:35.659Z,10772
2017-07-25T14:04:47.953Z,11172
2017-07-25T14:06:00.242Z,11696
2017-07-25T14:07:12.563Z,12772
2017-07-25T14:08:25.158Z,13932
2017-07-25T14:09:37.392Z,15116
2017-07-25T14:10:49.375Z,16416
2017-07-25T14:12:01.954Z,17352
2017-07-25T14:13:14.582Z,17216
2017-07-25T14:14:26.878Z,16168
2017-07-25T14:15:39.158Z,15312
2017-07-25T14:16:50.840Z,14820
2017-07-25T14:18:03.434Z,14064
2017-07-25T14:19:16.133Z,13076
2017-07-25T14:20:28.462Z,12144
2017-07-25T14:21:41.003Z,11468
2017-07-25T14:22:53.567Z,11168
2017-07-25T14:24:06.144Z,11552
2017-07-25T14:25:18.508Z,12588
2017-07-25T14:26:31.082Z,13232
2017-07-25T14:27:43.689Z,13164
2017-07-25T14:28:55.997Z,12396
2017-07-25T14:30:08.296Z,11580
2017-07-25T14:31:20.274Z,10816
2017-07-25T14:32:32.559Z,10300
2017-07-25T14:33:45.131Z,10184
2017-07-25T14:34:57.417Z,10300
2017-07-25T14:36:10.053Z,10644
2017-07-25T14:37:22.035Z,10808
2017-07-25T14:38:34.563Z,10672
2017-07-25T14:39:46.809Z,10356
2017-07-25T14:40:59.074Z,9948
2017-07-25T14:42:11.607Z,9960
2017-07-25T14:43:23.877Z,10608
2017-07-25T14:44:36.417Z,11632
2017-07-25T14:45:48.665Z,12464
2017-07-25T14:47:00.962Z,12964
2017-07-25T14:48:13.492Z,13268
2017-07-25T14:49:25.753Z,13876
2017-07-25T14:50:38.349Z,14588
2017-07-25T14:51:50.993Z,14848
2017-07-25T14:53:03.252Z,14952
2017-07-25T14:54:15.885Z,15280
2017-07-25T14:55:28.536Z,15780
2017-07-25T14:56:40.565Z,16256
2017-07-25T14:57:52.885Z,16640
2017-07-25T14:59:04.895Z,17020
2017-07-25T15:00:17.449Z,17288
2017-07-25T15:01:30.061Z,17460
2017-07-25T15:02:42.643Z,17440
2017-07-25T15:03:55.259Z,16680
2017-07-25T15:05:07.574Z,15296
2017-07-25T15:06:19.806Z,14120
2017-07-25T15:07:32.127Z,12900
2017-07-25T15:08:44.740Z,10724
2017-07-25T15:09:57.032Z,7988
2017-07-25T15:11:09.316Z,6632
2017-07-25T15:12:21.925Z,6232
2017-07-25T15:13:34.264Z,5636
2017-07-25T15:14:46.540Z,5092
2017-07-25T15:15:59.116Z,4872
2017-07-25T15:17:11.669Z,4324
2017-07-25T15:18:24.254Z,4008
2017-07-25T15:19:36.848Z,4008
2017-07-25T15:20:49.396Z,4116
2017-07-25T15:22:01.672Z,4528
2017-07-25T15:23:14.015Z,5176
2017-07-25T15:24:26.539Z,5688
2017-07-25T15:25:39.155Z,6032
2017-07-25T15:26:50.843Z,6404
2017-07-25T15:28:03.489Z,6880
2017-07-25T15:29:15.509Z,7432
2017-07-25T15:30:27.812Z,7916
2017-07-25T15:31:39.496Z,8240
2017-07-25T15:32:51.778Z,8468
2017-07-25T15:34:04.403Z,8684
2017-07-25T15:35:16.683Z,8904
2017-07-25T15:36:29.084Z,9208
2017-07-25T15:37:41.601Z,9516
2017-07-25T15:38:54.216Z,9648
2017-07-25T15:40:06.769Z,9976
2017-07-25T15:41:19.042Z,10260
2017-07-25T15:42:31.648Z,10132
2017-07-25T15:43:43.961Z,9856
2017-07-25T15:44:56.531Z,9852
2017-07-25T15:46:09.136Z,9788
2017-07-25T15:47:21.423Z,9516
2017-07-25T15:48:34.033Z,8812
2017-07-25T15:49:46.573Z,9276
2017-07-25T15:50:59.176Z,9344
2017-07-25T15:52:11.840Z,9448
2017-07-25T15:53:24.410Z,9568
2017-07-25T15:54:36.989Z,9548
2017-07-25T15:55:49.283Z,9596
2017-07-25T15:57:01.603Z,9664
2017-07-25T15:58:13.905Z,9744
2017-07-25T15:59:26.796Z,10188
2017-07-25T16:00:39.087Z,10212
2017-07-25T16:01:51.389Z,10176
2017-07-25T16:03:03.970Z,10508
2017-07-25T16:04:16.550Z,11172
2017-07-25T16:05:28.846Z,11644
2017-07-25T16:06:41.428Z,11556
2017-07-25T16:07:53.830Z,11236
2017-07-25T16:09:06.558Z,11028
2017-07-25T16:10:18.514Z,11064
2017-07-25T16:11:30.474Z,11248
2017-07-25T16:12:43.037Z,11404
2017-07-25T16:13:55.291Z,11448
2017-07-25T16:15:07.648Z,11424